Tiempo atmosférico en la estación meteorológica de Opakua, Araba/Álava (660 m.)



Fecha
DESCASC
Temp. máxima en grados centígrados (hora)
DESCASC
Temp. mínima en grados centígrados (hora)
DESCASC
Temp. media en grados centígrados
DESCASC
Racha de viento máxima en m/sg (hora)
DESCASC
Velocidad máxima media en intervalos de 10 minutos(hora)
DESCASC
Precipitaciones diarias en mm
DESCASC
Precipitaciones de 00:00 a 06:00 en mm
DESCASC
Precipitaciones de 06:00 a 12:00 en mm
DESCASC
Precipitaciones de 12:00 a 18:00 en mm
DESCASC
Precipitaciones de 18:00 a 24:00 en mm
DESCASC

Gráficas

Temp. máximas Temp. mínimas Temp. medias Precipitaciones Rachas de viento máximas Velocidades máximas media en intervalos de 10 minutos

Datos horarios

Fecha y hora oficial Temperatura (ºC) Velocidad del viento (km/h) Dirección del viento Racha (km/h) Dirección de racha Precipitación (mm) Presión (hPa) Tendencia (hPa) Humedad (%)
2019-10-18 23:00:00 15 7 Sur 18 Sur 0 -- -- 78
2019-10-18 22:00:00 15 10 Sur 17 Sur 0 -- -- 85
2019-10-18 21:00:00 13.9 5 Sudeste 12 Sudeste 0 -- -- 88
2019-10-18 20:00:00 14.3 7 Sudeste 10 Sudeste 0 -- -- 82
2019-10-18 19:00:00 16.3 4 Sudeste 10 Sudoeste 0 -- -- 76
2019-10-18 18:00:00 17.5 3 Sudoeste 6 Sur 0 -- -- 73
2019-10-18 17:00:00 17.5 3 Norte 10 Norte 0 -- -- 72
2019-10-18 16:00:00 16.8 3 Este 9 Este 0 -- -- 77
2019-10-18 15:00:00 16.3 3 Norte 8 Sur 0 -- -- 81
2019-10-18 14:00:00 15.6 3 Este 8 Oeste 0 -- -- 85
2019-10-18 13:00:00 14.3 3 Noroeste 7 Noroeste 0 -- -- 91
2019-10-18 12:00:00 13.3 5 Noroeste 11 Oeste 0 -- -- 96
2019-10-18 11:00:00 13.1 5 Oeste 12 Oeste 0 -- -- 97
2019-10-18 10:00:00 13 3 Oeste 6 Oeste 0 -- -- 97
2019-10-18 09:00:00 12.9 0 Calma 9 Oeste 0 -- -- 96
2019-10-18 08:00:00 13.2 2 Oeste 9 Sudeste 0 -- -- 93
2019-10-18 07:00:00 13.4 6 Sudoeste 10 Sudoeste 0 -- -- 93
2019-10-18 06:00:00 13.4 2 Este 14 Sudeste 0 -- -- 93
2019-10-18 05:00:00 13.6 7 Sudeste 24 Sudeste 0 -- -- 92
2019-10-18 04:00:00 13.8 12 Sudeste 25 Sudeste 0.2 -- -- 87
2019-10-18 03:00:00 15.2 5 Sudeste 19 Sur 4.4 -- -- 88
2019-10-18 02:00:00 16.8 8 Sur 27 Sudoeste 0 -- -- 72
2019-10-18 01:00:00 17.4 9 Sur 24 Sur 0 -- -- 66
2019-10-18 00:00:00 16.5 14 Sudeste 23 Sudeste 0 -- -- 68
2019-10-17 23:00:00 16 15 Sudeste 27 Sudeste 0 -- -- 70
2019-10-17 22:00:00 16.3 14 Sudeste 25 Sudeste 0 -- -- 67
2019-10-17 21:00:00 15.8 10 Sudeste 20 Sur 0 -- -- 70
2019-10-17 20:00:00 16.8 11 Sur 20 Sur 0 -- -- 66
2019-10-17 19:00:00 18.2 12 Sur 23 Sur 0 -- -- 63
2019-10-17 18:00:00 19.3 9 Sur 27 Sudeste 0 -- -- 63
2019-10-17 17:00:00 19.2 6 Sur 21 Sur 0 -- -- 63
2019-10-17 16:00:00 19.3 14 Sur 29 Sudoeste 0 -- -- 63
2019-10-17 15:00:00 17.1 11 Sur 27 Sudoeste 0 -- -- 71
2019-10-17 14:00:00 18.1 14 Sur 27 Sur 0 -- -- 68
2019-10-17 13:00:00 15.9 9 Sur 22 Sur 0 -- -- 77
2019-10-17 12:00:00 13.9 11 Sudeste 19 Sudeste 0 -- -- 79
2019-10-17 11:00:00 13.9 3 Sur 15 Sudoeste 0 -- -- 82
2019-10-17 10:00:00 12.5 4 Sudeste 10 Norte 0 -- -- 93
2019-10-17 09:00:00 12.7 6 Sur 17 Sur 0.2 -- -- 88
2019-10-17 08:00:00 12.1 3 Este 9 Sudeste 0.4 -- -- 93
2019-10-17 07:00:00 12.5 5 Sudeste 9 Sur 1.8 -- -- 90
2019-10-17 06:00:00 14 4 Sudoeste 19 Sudoeste 0 -- -- 76
2019-10-17 05:00:00 13.8 6 Sur 14 Sudoeste 0 -- -- 76
2019-10-17 04:00:00 13.1 4 Sudeste 9 Sur 0 -- -- 78
2019-10-17 03:00:00 13.6 6 Sur 13 Sudeste 0 -- -- 68
2019-10-17 02:00:00 14 8 Sudeste 11 Sudeste 0 -- -- 67
2019-10-17 01:00:00 14.8 3 Sudeste 19 Sudeste 0 -- -- 64
2019-10-17 00:00:00 14.9 10 Sudeste 15 Sur 0 -- -- 63
2019-10-16 23:00:00 15.5 8 Sur 16 Sur 0 -- -- 59
2019-10-16 22:00:00 15 9 Sur 17 Sur 0 -- -- 63
2019-10-16 21:00:00 13.9 10 Sudeste 17 Sudoeste 0 -- -- 71
2019-10-16 20:00:00 15.5 6 Sur 12 Sur 0 -- -- 65
2019-10-16 19:00:00 16 8 Sudeste 19 Sudoeste 0 -- -- 64
2019-10-16 18:00:00 18.8 7 Oeste 26 Sur 0 -- -- 52
2019-10-16 17:00:00 19.5 13 Sudoeste 27 Sudoeste 0 -- -- 50
2019-10-16 16:00:00 19.5 13 Sudoeste 36 Sudoeste 0 -- -- 49
2019-10-16 15:00:00 18 14 Sur 30 Sudoeste 0 -- -- 52
2019-10-16 14:00:00 15.2 16 Sur 31 Sudeste 0 -- -- 60
2019-10-16 13:00:00 15.2 9 Sudoeste 25 Oeste 0 -- -- 56
2019-10-16 12:00:00 14.1 8 Sudoeste 24 Oeste 0 -- -- 63
2019-10-16 11:00:00 13.3 8 Sudoeste 35 Sudoeste 0 -- -- 65
2019-10-16 10:00:00 12.5 12 Sudoeste 38 Sur 0 -- -- 70
2019-10-16 09:00:00 12.3 12 Sudoeste 42 Sudoeste 0 -- -- 67
2019-10-16 08:00:00 11.6 10 Oeste 32 Oeste 0 -- -- 68
2019-10-16 07:00:00 11.6 11 Sudoeste 30 Sur 0 -- -- 68
2019-10-16 06:00:00 11.4 9 Sur 20 Sur 0 -- -- 72
2019-10-16 05:00:00 12.1 11 Sudoeste 39 Sudoeste 0 -- -- 70
2019-10-16 04:00:00 12.4 11 Sudoeste 28 Sudoeste 0 -- -- 68
2019-10-16 03:00:00 11.7 6 Sudeste 18 Sur 0 -- -- 69
2019-10-16 02:00:00 11.2 8 Sur 20 Sur 0 -- -- 69
2019-10-16 01:00:00 10.4 9 Sur 17 Sudoeste 0 -- -- 74
2019-10-16 00:00:00 11 9 Sur 19 Sur 0 -- -- 69
2019-10-15 23:00:00 10.8 5 Sur 22 Sudoeste 0 -- -- 69
2019-10-15 22:00:00 11.7 6 Sur 26 Sur 0 -- -- 60
2019-10-15 21:00:00 12.4 13 Sur 24 Sudoeste 0 -- -- 57
2019-10-15 20:00:00 12.2 12 Sur 22 Sur 0 -- -- 60
2019-10-15 19:00:00 13 5 Sudoeste 23 Sudoeste 0 -- -- 59
2019-10-15 18:00:00 13.8 5 Oeste 23 Sudoeste 0 -- -- 57
2019-10-15 17:00:00 15.2 9 Oeste 30 Oeste 0 -- -- 55
2019-10-15 16:00:00 14.4 12 Oeste 24 Oeste 0 -- -- 58
2019-10-15 15:00:00 15.1 10 Oeste 26 Noroeste 0 -- -- 58
2019-10-15 14:00:00 14.4 7 Sur 22 Oeste 0 -- -- 62
2019-10-15 13:00:00 12.6 6 Oeste 15 Noroeste 0 -- -- 66
2019-10-15 12:00:00 11.5 3 Sudeste 10 Sudoeste 0 -- -- 74
2019-10-15 11:00:00 9.8 3 Este 9 Este 0 -- -- 80
2019-10-15 10:00:00 7.8 3 Nordeste 7 Sudeste 0 -- -- 91
2019-10-15 09:00:00 5.2 4 Sudeste 9 Sudeste 0 -- -- 98
2019-10-15 08:00:00 4.7 6 Este 12 Este 0 -- -- 97
2019-10-15 07:00:00 4.3 8 Sudeste 10 Este 0 -- -- 97
2019-10-15 06:00:00 5.3 7 Sudeste 9 Sudeste 0.2 -- -- 95
2019-10-15 05:00:00 6.9 5 Noroeste 8 Noroeste 0 -- -- 91
2019-10-15 04:00:00 7.5 3 Sur 12 Sudoeste 1.2 -- -- 92
2019-10-15 03:00:00 7.9 5 Sur 17 Sur 3 -- -- 94
2019-10-15 02:00:00 9 4 Sudoeste 8 Sudoeste 0.2 -- -- 93
2019-10-15 01:00:00 9.2 0 Calma 13 Oeste 0.6 -- -- 90
2019-10-15 00:00:00 10 8 Oeste 26 Sudoeste 0 -- -- 83
2019-10-14 23:00:00 10.9 10 Sudoeste 43 Sudoeste 0 -- -- 73
2019-10-14 22:00:00 11.3 17 Sudoeste 37 Sudoeste 0 -- -- 75
2019-10-14 21:00:00 11.5 6 Oeste 39 Sudoeste 0.2 -- -- 75
2019-10-14 20:00:00 12.5 14 Sudoeste 35 Sudoeste 0 -- -- 76
2019-10-14 19:00:00 14.1 11 Sudoeste 44 Oeste 0 -- -- 63
2019-10-14 18:00:00 18.4 9 Oeste 30 Oeste 0 -- -- 51
2019-10-14 17:00:00 19 11 Oeste 27 Sudoeste 0 -- -- 53
2019-10-14 16:00:00 19.6 9 Sudoeste 37 Sur 0 -- -- 59
2019-10-14 15:00:00 19 11 Oeste 36 Sudoeste 0 -- -- 63
2019-10-14 14:00:00 16.6 19 Sur 44 Sudeste 2.8 -- -- 78
2019-10-14 13:00:00 18.9 23 Sudeste 49 Sudeste 0 -- -- 71
2019-10-14 12:00:00 17.4 24 Sudeste 49 Sudeste 0 -- -- 80
2019-10-14 11:00:00 16.9 25 Sudeste 59 Sudeste 0 -- -- 83
2019-10-14 10:00:00 16.4 34 Sudeste 66 Sudeste 0 -- -- 85
2019-10-14 09:00:00 15.9 43 Sudeste 68 Sudeste 0 -- -- 89
2019-10-14 08:00:00 16.1 39 Sudeste 77 Sudeste 0 -- -- 88
2019-10-14 07:00:00 16.2 38 Sudeste 72 Sudeste 0 -- -- 87
2019-10-14 06:00:00 16.7 39 Sudeste 67 Sudeste 0 -- -- 82
2019-10-14 05:00:00 16.9 40 Sudeste 64 Sudeste 0 -- -- 81
2019-10-14 04:00:00 17.2 35 Sudeste 69 Este 0 -- -- 81
2019-10-14 03:00:00 17.4 39 Sudeste 65 Sudeste 0 -- -- 80
2019-10-14 02:00:00 17.7 31 Sudeste 48 Sudeste 0 -- -- 77
2019-10-14 01:00:00 18.5 28 Sudeste 50 Sudeste 0 -- -- 76
2019-10-14 00:00:00 19.6 23 Sudeste 48 Sudeste 0 -- -- 71
2019-10-13 23:00:00 20.5 23 Sudeste 48 Este 0 -- -- 65
2019-10-13 22:00:00 21.7 18 Sur 39 Sur 0 -- -- 36
2019-10-13 21:00:00 21.9 12 Sudeste 34 Sur 0 -- -- 38
2019-10-13 20:00:00 22.2 14 Sudeste 34 Sudeste 0 -- -- 40
2019-10-13 19:00:00 23.3 19 Sudeste 35 Sudeste 0 -- -- 39
2019-10-13 18:00:00 24.1 15 Sudeste 26 Sudeste 0 -- -- 39
2019-10-13 17:00:00 24 14 Sudeste 35 Este 0 -- -- 48
2019-10-13 16:00:00 23.9 15 Sudeste 38 Sudeste 0 -- -- 52
2019-10-13 15:00:00 23.9 22 Sudeste 46 Sudeste 0 -- -- 54
2019-10-13 14:00:00 21.8 28 Sudeste 55 Sudeste 0 -- -- 63
2019-10-13 13:00:00 20.4 33 Sudeste 57 Sudeste 0 -- -- 70
2019-10-13 12:00:00 18.9 30 Sudeste 52 Sudeste 0 -- -- 75
2019-10-13 11:00:00 18.3 32 Sudeste 60 Sudeste 0 -- -- 76
2019-10-13 10:00:00 16.6 38 Sudeste 69 Sudeste 0 -- -- 83
2019-10-13 09:00:00 16.3 39 Sudeste 69 Sudeste 0 -- -- 84
2019-10-13 08:00:00 16.2 40 Sudeste 64 Sudeste 0 -- -- 85
2019-10-13 07:00:00 16.5 41 Sudeste 68 Sudeste 0 -- -- 84
2019-10-13 06:00:00 16.7 38 Sudeste 64 Sudeste 0 -- -- 82
2019-10-13 05:00:00 16.8 39 Sudeste 62 Sudeste 0 -- -- 81
2019-10-13 04:00:00 17.1 36 Sudeste 65 Sudeste 0 -- -- 78
2019-10-13 03:00:00 17.4 32 Sudeste 63 Este 0 -- -- 79
2019-10-13 02:00:00 18.1 36 Sudeste 64 Sudeste 0 -- -- 81
2019-10-13 01:00:00 18.8 37 Sudeste 62 Sudeste 0 -- -- 78
2019-10-13 00:00:00 19.2 34 Sudeste 64 Sudeste 0 -- -- 77
2019-10-12 23:00:00 19.4 35 Sudeste 60 Sudeste 0 -- -- 76
2019-10-12 22:00:00 19.7 29 Sudeste 60 Sudeste 0.2 -- -- 77
2019-10-12 21:00:00 20.6 28 Sudeste 56 Sudeste 0 -- -- 69
2019-10-12 20:00:00 20.6 30 Sudeste 47 Sudeste 0 -- -- 66
2019-10-12 19:00:00 20.2 28 Sudeste 49 Sudeste 0 -- -- 68
2019-10-12 18:00:00 23.3 29 Sudeste 52 Sudeste 0 -- -- 55
2019-10-12 17:00:00 23.9 26 Sudeste 54 Sudeste 0 -- -- 58
2019-10-12 16:00:00 23.4 30 Sudeste 53 Sudeste 0 -- -- 63
2019-10-12 15:00:00 21.8 33 Sudeste 57 Sudeste 0 -- -- 68
2019-10-12 14:00:00 21.2 33 Sudeste 63 Sudeste 0 -- -- 69
2019-10-12 13:00:00 19.7 34 Sudeste 61 Sudeste 0 -- -- 75
2019-10-12 12:00:00 18.7 34 Sudeste 61 Sudeste 0 -- -- 78
2019-10-12 11:00:00 18.5 35 Sudeste 59 Sudeste 0 -- -- 80
2019-10-12 10:00:00 18 33 Sudeste 59 Sudeste 0 -- -- 82
2019-10-12 09:00:00 17.5 33 Sudeste 53 Sudeste 0 -- -- 84
2019-10-12 08:00:00 17.6 32 Sudeste 60 Sudeste 0 -- -- 82
2019-10-12 07:00:00 17.7 37 Sudeste 59 Sudeste 0 -- -- 82
2019-10-12 06:00:00 17.8 34 Sudeste 60 Sudeste 0 -- -- 84
2019-10-12 05:00:00 18.1 29 Sudeste 48 Sudeste 0 -- -- 84
2019-10-12 04:00:00 18.4 28 Sudeste 48 Sudeste 0 -- -- 82
2019-10-12 03:00:00 18.8 28 Sudeste 45 Sudeste 0 -- -- 80
2019-10-12 02:00:00 19.2 30 Sudeste 50 Este 0 -- -- 77
2019-10-12 01:00:00 19.7 32 Sudeste 51 Sudeste 0 -- -- 75
2019-10-12 00:00:00 20.1 30 Sudeste 58 Sudeste 0 -- -- 70
2019-10-11 23:00:00 20.6 35 Sudeste 55 Sudeste 0 -- -- 67
2019-10-11 22:00:00 20.7 29 Sudeste 50 Sudeste 0 -- -- 67
2019-10-11 21:00:00 20.5 20 Sudeste 44 Sudeste 0 -- -- 68
2019-10-11 20:00:00 20.7 25 Sudeste 41 Sudeste 0 -- -- 66
2019-10-11 19:00:00 22 10 Sudeste 30 Sudeste 0 -- -- 61
2019-10-11 18:00:00 23.2 7 Sudeste 28 Este 0 -- -- 56
2019-10-11 17:00:00 23.9 10 Nordeste 26 Nordeste 0 -- -- 54
2019-10-11 16:00:00 23.9 9 Sudeste 26 Este 0 -- -- 55
2019-10-11 15:00:00 22 16 Nordeste 32 Este 0 -- -- 61
2019-10-11 14:00:00 19.7 18 Este 43 Este 0 -- -- 67
2019-10-11 13:00:00 17.4 24 Sudeste 51 Sudeste 0 -- -- 74
2019-10-11 12:00:00 16.9 23 Sudeste 48 Sudeste 0 -- -- 76
2019-10-11 11:00:00 16.3 13 Sudeste 40 Sudeste 0 -- -- 76
2019-10-11 10:00:00 15.5 13 Sur 39 Sudeste 0 -- -- 77
2019-10-11 09:00:00 14.3 8 Sudeste 59 Sudeste 0 -- -- 80
2019-10-11 08:00:00 14.2 35 Sudeste 55 Sudeste 0 -- -- 75
2019-10-11 07:00:00 14.7 32 Sudeste 54 Este 0 -- -- 68
2019-10-11 06:00:00 14.9 38 Sudeste 58 Sudeste 0 -- -- 65
2019-10-11 05:00:00 15.1 32 Sudeste 58 Sudeste 0 -- -- 62
2019-10-11 04:00:00 15.3 15 Este 35 Este 0 -- -- 59
2019-10-11 03:00:00 15.2 10 Este 28 Este 0 -- -- 60
2019-10-11 02:00:00 12.6 3 Nordeste 8 Noroeste 0 -- -- 71
2019-10-11 01:00:00 9.9 3 Este 10 Oeste 0 -- -- 85
2019-10-11 00:00:00 12.7 7 Nordeste 17 Este 0 -- -- 74
2019-10-10 23:00:00 10.6 4 Sur 13 Sudeste 0 -- -- 86
2019-10-10 22:00:00 11.6 9 Sudeste 14 Este 0 -- -- 81
2019-10-10 21:00:00 13.3 9 Sudeste 17 Sudeste 0 -- -- 76
2019-10-10 20:00:00 14.6 9 Sudeste 13 Sudeste 0 -- -- 73
2019-10-10 19:00:00 18.5 3 Sudeste 9 Nordeste 0 -- -- 58
2019-10-10 18:00:00 19.5 5 Nordeste 10 Nordeste 0 -- -- 50
2019-10-10 17:00:00 20.1 5 Norte 17 Noroeste 0 -- -- 44
2019-10-10 16:00:00 19.9 4 Norte 12 Norte 0 -- -- 47
2019-10-10 15:00:00 18.9 3 Este 11 Nordeste 0 -- -- 53
2019-10-10 14:00:00 17.2 6 Nordeste 15 Norte 0 -- -- 59
2019-10-10 13:00:00 16.4 4 Nordeste 10 Norte 0 -- -- 62
2019-10-10 12:00:00 14.2 3 Sudoeste 6 Noroeste 0 -- -- 72
2019-10-10 11:00:00 12.5 0 Calma 4 Sudoeste 0 -- -- 82
2019-10-10 10:00:00 9.3 2 Sudoeste 4 Sudoeste 0 -- -- 90
2019-10-10 09:00:00 5.9 0 Calma 9 Sudeste 0 -- -- 97
2019-10-10 08:00:00 6 5 Sudeste 11 Sudeste 0 -- -- 96
2019-10-10 07:00:00 6.4 8 Sudeste 13 Sudeste 0 -- -- 96
2019-10-10 06:00:00 6.3 8 Sudeste 12 Sudeste 0 -- -- 96
2019-10-10 05:00:00 6.5 8 Sudeste 12 Sudeste 0 -- -- 96
2019-10-10 04:00:00 6.5 5 Sudeste 10 Sudeste 0 -- -- 95
2019-10-10 03:00:00 7.2 8 Sudeste 11 Sudeste 0 -- -- 94
2019-10-10 02:00:00 7.8 7 Sudeste 12 Sudeste 0 -- -- 93
2019-10-10 01:00:00 7.3 8 Sudeste 12 Sudeste 0 -- -- 94
2019-10-10 00:00:00 7.5 8 Sudeste 11 Sudeste 0 -- -- 93
2019-10-09 23:00:00 7.8 7 Sudeste 11 Sudeste 0 -- -- 92
2019-10-09 22:00:00 8.5 6 Sudeste 8 Sudeste 0 -- -- 89
2019-10-09 21:00:00 10.4 3 Sudeste 12 Norte 0 -- -- 81
2019-10-09 20:00:00 12.5 11 Norte 25 Norte 0 -- -- 74
2019-10-09 19:00:00 13.9 16 Norte 30 Norte 0 -- -- 67
2019-10-09 18:00:00 15.2 14 Noroeste 33 Noroeste 0 -- -- 66
2019-10-09 17:00:00 15.9 16 Noroeste 29 Noroeste 0 -- -- 62
2019-10-09 16:00:00 16.3 13 Noroeste 24 Noroeste 0 -- -- 62
2019-10-09 15:00:00 15.9 17 Noroeste 28 Noroeste 0 -- -- 68
2019-10-09 14:00:00 15.5 12 Noroeste 20 Noroeste 0 -- -- 69
2019-10-09 13:00:00 13.8 5 Norte 17 Norte 0 -- -- 77
2019-10-09 12:00:00 13.6 4 Sudoeste 10 Noroeste 0 -- -- 85
2019-10-09 11:00:00 12.8 8 Noroeste 13 Noroeste 0 -- -- 89
2019-10-09 10:00:00 12.2 4 Oeste 11 Oeste 0 -- -- 96
2019-10-09 09:00:00 12.1 5 Oeste 11 Oeste 0 -- -- 96
2019-10-09 08:00:00 12.3 4 Oeste 11 Oeste 0 -- -- 96
2019-10-09 07:00:00 12.5 4 Oeste 13 Oeste 0.2 -- -- 97
2019-10-09 06:00:00 13 2 Noroeste 13 Noroeste 0 -- -- 95
2019-10-09 05:00:00 13.4 5 Oeste 12 Oeste 0 -- -- 91
2019-10-09 04:00:00 13.9 3 Oeste 8 Oeste 0 -- -- 90
2019-10-09 03:00:00 14.3 2 Oeste 9 Sudoeste 0 -- -- 89
2019-10-09 02:00:00 14.8 4 Oeste 12 Noroeste 0 -- -- 86
2019-10-09 01:00:00 15.1 5 Noroeste 13 Noroeste 0 -- -- 84
2019-10-09 00:00:00 15.4 6 Noroeste 18 Noroeste 0 -- -- 83
2019-10-08 23:00:00 16.7 3 Noroeste 13 Noroeste 0 -- -- 82
2019-10-08 22:00:00 17 7 Noroeste 22 Noroeste 0 -- -- 84
2019-10-08 21:00:00 17.2 12 Noroeste 21 Noroeste 0 -- -- 84
2019-10-08 20:00:00 18.8 5 Noroeste 17 Noroeste 0 -- -- 72
2019-10-08 19:00:00 21.3 8 Norte 19 Nordeste 0 -- -- 55
2019-10-08 18:00:00 22.4 13 Nordeste 25 Nordeste 0 -- -- 48
2019-10-08 17:00:00 26.9 10 Norte 27 Sudoeste 0 -- -- 39
2019-10-08 16:00:00 27.2 8 Noroeste 15 Noroeste 0 -- -- 34
2019-10-08 15:00:00 26.3 7 Noroeste 15 Noroeste 0 -- -- 34
2019-10-08 14:00:00 25.3 4 Noroeste 10 Noroeste 0 -- -- 38
2019-10-08 13:00:00 23.2 2 Nordeste 8 Norte 0 -- -- 39
2019-10-08 12:00:00 20.4 2 Este 5 Norte 0 -- -- 48
2019-10-08 11:00:00 17.2 2 Oeste 5 Oeste 0 -- -- 48
2019-10-08 10:00:00 13.9 2 Norte 9 Sudeste 0 -- -- 59
2019-10-08 09:00:00 9.6 5 Sudeste 10 Sudeste 0 -- -- 81
2019-10-08 08:00:00 8.5 3 Sur 8 Sudeste 0 -- -- 69
2019-10-08 07:00:00 8.8 4 Sudeste 9 Sudoeste 0 -- -- 67
2019-10-08 06:00:00 9.8 5 Sudeste 14 Sudeste 0 -- -- 49
2019-10-08 05:00:00 9.6 9 Sudeste 15 Sudeste 0 -- -- 59
2019-10-08 04:00:00 9.4 12 Sudeste 14 Sudeste 0 -- -- 60
2019-10-08 03:00:00 9 8 Sudeste 13 Sudeste 0 -- -- 62
2019-10-08 02:00:00 9.5 10 Sudeste 15 Sudeste 0 -- -- 59
2019-10-08 01:00:00 9.8 11 Sudeste 14 Sudeste 0 -- -- 64
2019-10-08 00:00:00 10.4 9 Sudeste 14 Sudeste 0 -- -- 63
2019-10-07 23:00:00 10.4 9 Sudeste 12 Sudeste 0 -- -- 67
2019-10-07 22:00:00 11.3 10 Sudeste 15 Sudeste 0 -- -- 64
2019-10-07 21:00:00 12.3 10 Sudeste 14 Sudeste 0 -- -- 60
2019-10-07 20:00:00 15.1 8 Sudeste 15 Noroeste 0 -- -- 51
2019-10-07 19:00:00 19.6 10 Noroeste 23 Noroeste 0 -- -- 30
2019-10-07 18:00:00 21 15 Noroeste 27 Noroeste 0 -- -- 35
2019-10-07 17:00:00 21.8 13 Noroeste 25 Noroeste 0 -- -- 34
2019-10-07 16:00:00 22.1 14 Noroeste 23 Noroeste 0 -- -- 33
2019-10-07 15:00:00 20.7 9 Noroeste 20 Noroeste 0 -- -- 40
2019-10-07 14:00:00 19 5 Oeste 14 Sudoeste 0 -- -- 46
2019-10-07 13:00:00 17.2 4 Noroeste 12 Noroeste 0 -- -- 63
2019-10-07 12:00:00 15.2 5 Norte 9 Norte 0 -- -- 75
2019-10-07 11:00:00 13.5 3 Noroeste 9 Oeste 0 -- -- 81
2019-10-07 10:00:00 12.9 0 Calma 5 Sudeste 0 -- -- 85
2019-10-07 09:00:00 10.2 0 Calma 5 Sudeste 0 -- -- 96
2019-10-07 08:00:00 10.3 2 Nordeste 4 Sudeste 0 -- -- 97
2019-10-07 07:00:00 10.3 0 Calma 5 Sudeste 0 -- -- 98
2019-10-07 06:00:00 10.1 2 Norte 5 Norte 0 -- -- 98
2019-10-07 05:00:00 9.6 0 Calma 6 Sur 0 -- -- 98
2019-10-07 04:00:00 8.6 5 Sudeste 8 Sudeste 0 -- -- 97
2019-10-07 03:00:00 8.8 6 Sudeste 8 Sudeste 0 -- -- 96
2019-10-07 02:00:00 9.6 4 Sur 8 Oeste 0 -- -- 92
2019-10-07 01:00:00 10.9 3 Sudeste 8 Noroeste 0 -- -- 90
2019-10-07 00:00:00 12.6 4 Noroeste 13 Noroeste 0 -- -- 89
2019-10-06 23:00:00 12.7 7 Oeste 11 Oeste 0 -- -- 89
2019-10-06 22:00:00 12.6 3 Oeste 9 Noroeste 0 -- -- 88
2019-10-06 21:00:00 12.9 6 Oeste 18 Norte 0 -- -- 86
2019-10-06 20:00:00 13.5 11 Norte 22 Norte 0 -- -- 88
2019-10-06 19:00:00 14.7 12 Norte 23 Noroeste 0 -- -- 83
2019-10-06 18:00:00 15.6 9 Norte 23 Noroeste 0 -- -- 79
2019-10-06 17:00:00 15.8 10 Norte 23 Noroeste 0 -- -- 80
2019-10-06 16:00:00 15.6 13 Noroeste 34 Noroeste 0 -- -- 82
2019-10-06 15:00:00 17 13 Oeste 21 Oeste 0 -- -- 80
2019-10-06 14:00:00 15.6 4 Oeste 9 Oeste 0 -- -- 85
2019-10-06 13:00:00 14.1 2 Nordeste 8 Oeste 0 -- -- 90
2019-10-06 12:00:00 13.9 3 Oeste 6 Oeste 0 -- -- 88
2019-10-06 11:00:00 13.4 2 Sur 5 Sudoeste 0 -- -- 88
2019-10-06 10:00:00 12.9 2 Norte 5 Sudeste 0 -- -- 88
2019-10-06 09:00:00 12 0 Calma 5 Sudeste 0 -- -- 92
2019-10-06 08:00:00 12.3 3 Sur 5 Sur 0 -- -- 91
2019-10-06 07:00:00 12 0 Calma 6 Sudeste 0 -- -- 93
2019-10-06 06:00:00 11.8 0 Calma 8 Sudeste 0 -- -- 93
2019-10-06 05:00:00 10.8 5 Sudeste 9 Sudeste 0 -- -- 95
2019-10-06 04:00:00 10.5 7 Sudeste 9 Sudeste 0 -- -- 91
2019-10-06 03:00:00 13 3 Noroeste 15 Noroeste 0 -- -- 84
2019-10-06 02:00:00 13.1 0 Calma 13 Noroeste 0 -- -- 86
2019-10-06 01:00:00 13.6 8 Noroeste 12 Noroeste 0 -- -- 84
2019-10-06 00:00:00 13.8 3 Oeste 10 Noroeste 0 -- -- 83
2019-10-05 23:00:00 13.8 3 Noroeste 12 Oeste 0 -- -- 85
2019-10-05 22:00:00 12.5 0 Calma 8 Sudeste 0 -- -- 91
2019-10-05 21:00:00 13.4 2 Sur 8 Oeste 0 -- -- 85
2019-10-05 20:00:00 15.7 5 Sudeste 9 Norte 0 -- -- 80
2019-10-05 19:00:00 18.6 4 Norte 11 Noroeste 0 -- -- 68
2019-10-05 18:00:00 19.9 7 Norte 15 Norte 0 -- -- 65
2019-10-05 17:00:00 20.4 8 Norte 17 Norte 0 -- -- 63
2019-10-05 16:00:00 20.7 10 Norte 23 Este 0 -- -- 62
2019-10-05 15:00:00 20.6 5 Noroeste 15 Norte 0 -- -- 58
2019-10-05 14:00:00 19.3 7 Noroeste 15 Noroeste 0 -- -- 62
2019-10-05 13:00:00 17.8 4 Noroeste 11 Noroeste 0 -- -- 67
2019-10-05 12:00:00 16.6 4 Noroeste 10 Oeste 0 -- -- 71
2019-10-05 11:00:00 14.5 3 Sudoeste 8 Oeste 0 -- -- 82
2019-10-05 10:00:00 13.3 3 Oeste 6 Sudoeste 0 -- -- 90
2019-10-05 09:00:00 11.4 4 Sudeste 7 Sudeste 0 -- -- 98
2019-10-05 08:00:00 11.3 5 Sudeste 8 Sudeste 0 -- -- 94
2019-10-05 07:00:00 13.1 0 Calma 6 Oeste 0 -- -- 94
2019-10-05 06:00:00 13.2 2 Oeste 6 Oeste 0 -- -- 95
2019-10-05 05:00:00 13.2 3 Oeste 6 Noroeste 0 -- -- 95
2019-10-05 04:00:00 13.3 4 Noroeste 7 Noroeste 0 -- -- 94
2019-10-05 03:00:00 13.5 4 Noroeste 6 Oeste 0 -- -- 93
2019-10-05 02:00:00 13.5 2 Sudoeste 8 Oeste 0 -- -- 92
2019-10-05 01:00:00 13.6 4 Oeste 7 Oeste 0 -- -- 91
2019-10-05 00:00:00 13.6 0 Calma 12 Noroeste 0 -- -- 90
2019-10-04 23:00:00 14 8 Noroeste 17 Norte 0 -- -- 90
2019-10-04 22:00:00 14.5 6 Noroeste 12 Oeste 0 -- -- 90
2019-10-04 21:00:00 14.2 4 Oeste 9 Oeste 0 -- -- 90
2019-10-04 20:00:00 15.6 8 Noroeste 15 Noroeste 0 -- -- 84
2019-10-04 19:00:00 16.4 5 Norte 13 Norte 0 -- -- 82
2019-10-04 18:00:00 17.3 5 Nordeste 19 Nordeste 0 -- -- 80
2019-10-04 17:00:00 18.6 6 Nordeste 15 Nordeste 0 -- -- 75
2019-10-04 16:00:00 19.3 6 Nordeste 15 Norte 0 -- -- 72
2019-10-04 15:00:00 20 12 Noroeste 21 Noroeste 0 -- -- 70
2019-10-04 14:00:00 19.5 6 Sudoeste 13 Oeste 0 -- -- 72
2019-10-04 13:00:00 17.7 8 Noroeste 15 Norte 0 -- -- 80
2019-10-04 12:00:00 16.3 2 Oeste 5 Oeste 0 -- -- 82
2019-10-04 11:00:00 15 2 Oeste 5 Oeste 0 -- -- 86
2019-10-04 10:00:00 13.2 0 Calma 8 Oeste 0 -- -- 89
2019-10-04 09:00:00 12.8 0 Calma 10 Oeste 0 -- -- 91
2019-10-04 08:00:00 13.1 0 Calma 4 Sudoeste 0 -- -- 94
2019-10-04 07:00:00 13 3 Oeste 8 Noroeste 0 -- -- 91
2019-10-04 06:00:00 13.4 2 Este 6 Sudeste 0 -- -- 97
2019-10-04 05:00:00 12.6 4 Sudeste 6 Noroeste 0 -- -- 96
2019-10-04 04:00:00 12.6 4 Sudeste 10 Sudeste 0 -- -- 98
2019-10-04 03:00:00 11.3 7 Sudeste 10 Sudeste 0 -- -- 97
2019-10-04 02:00:00 11.2 4 Sudeste 10 Sudeste 0 -- -- 94
2019-10-04 01:00:00 11.6 9 Sudeste 12 Sudeste 0 -- -- 94
2019-10-04 00:00:00 11.4 9 Sudeste 12 Sudeste 0 -- -- 93
2019-10-03 23:00:00 11.1 6 Sudeste 12 Sudeste 0 -- -- 88
2019-10-03 22:00:00 11.3 10 Sudeste 13 Sudeste 0 -- -- 86
2019-10-03 21:00:00 11.8 8 Sudeste 9 Sudeste 0 -- -- 84
2019-10-03 20:00:00 16 3 Norte 18 Norte 0 -- -- 68
2019-10-03 19:00:00 18.3 12 Norte 22 Noroeste 0 -- -- 59
2019-10-03 18:00:00 19.7 12 Norte 21 Norte 0 -- -- 55
2019-10-03 17:00:00 20.2 10 Norte 23 Noroeste 0 -- -- 56
2019-10-03 16:00:00 20.6 14 Noroeste 28 Noroeste 0 -- -- 53
2019-10-03 15:00:00 19.6 10 Noroeste 20 Oeste 0 -- -- 58
2019-10-03 14:00:00 18.2 5 Sudoeste 14 Sudoeste 0 -- -- 63
2019-10-03 13:00:00 16.6 3 Oeste 8 Sudoeste 0 -- -- 72
2019-10-03 12:00:00 15 3 Sudeste 6 Sudeste 0 -- -- 77
2019-10-03 11:00:00 11.9 4 Este 7 Este 0 -- -- 95
2019-10-03 10:00:00 9.7 3 Norte 6 Sudeste 0 -- -- 100
2019-10-03 09:00:00 8.4 2 Sudeste 8 Sudeste 0 -- -- 99
2019-10-03 08:00:00 8.5 6 Sudeste 8 Sudeste 0 -- -- 98
2019-10-03 07:00:00 10.2 2 Sudeste 5 Norte 0 -- -- 100
2019-10-03 06:00:00 10.2 3 Norte 4 Nordeste 0 -- -- 100
2019-10-03 05:00:00 9.6 2 Nordeste 5 Sudeste 0 -- -- 100
2019-10-03 04:00:00 9.2 4 Sudeste 6 Sudeste 0 -- -- 99
2019-10-03 03:00:00 8.4 5 Sudeste 10 Sudeste 0 -- -- 97
2019-10-03 02:00:00 9.5 6 Sudeste 9 Sudeste 0 -- -- 96
2019-10-03 01:00:00 10.7 5 Sudeste 9 Oeste 0 -- -- 96
2019-10-03 00:00:00 11.6 3 Oeste 16 Oeste 0.2 -- -- 98
2019-10-02 23:00:00 11.9 8 Noroeste 13 Noroeste 0.2 -- -- 98
2019-10-02 22:00:00 12 8 Oeste 13 Oeste 0 -- -- 98
2019-10-02 21:00:00 12.2 8 Noroeste 17 Noroeste 0 -- -- 96
2019-10-02 20:00:00 12.7 9 Noroeste 19 Noroeste 0.2 -- -- 96
2019-10-02 19:00:00 13.2 7 Noroeste 23 Noroeste 0 -- -- 94
2019-10-02 18:00:00 14 17 Noroeste 23 Noroeste 0 -- -- 88
2019-10-02 17:00:00 13.4 17 Noroeste 30 Oeste 0 -- -- 92
2019-10-02 16:00:00 13.7 12 Noroeste 33 Noroeste 0 -- -- 90
2019-10-02 15:00:00 14.5 15 Noroeste 29 Noroeste 0 -- -- 80
2019-10-02 14:00:00 14.2 17 Noroeste 33 Noroeste 0 -- -- 85
2019-10-02 13:00:00 13.2 21 Noroeste 30 Oeste 0 -- -- 90
2019-10-02 12:00:00 12.9 16 Noroeste 26 Oeste 0 -- -- 94
2019-10-02 11:00:00 12 11 Oeste 24 Oeste 0.2 -- -- 98
2019-10-02 10:00:00 11.7 12 Oeste 21 Oeste 0.4 -- -- 96
2019-10-02 09:00:00 11.6 4 Oeste 12 Sudoeste 0.4 -- -- 96
2019-10-02 08:00:00 12 4 Noroeste 6 Oeste 0.2 -- -- 92
2019-10-02 07:00:00 12.2 0 Calma 8 Sudoeste 0 -- -- 89
2019-10-02 06:00:00 12.2 2 Sur 16 Norte 0 -- -- 87
2019-10-02 05:00:00 12.4 3 Norte 22 Noroeste 0 -- -- 85
2019-10-02 04:00:00 12.2 2 Sudeste 16 Noroeste 0 -- -- 88
2019-10-02 03:00:00 13.6 10 Noroeste 18 Oeste 0 -- -- 86
2019-10-02 02:00:00 13.8 6 Noroeste 16 Noroeste 0 -- -- 87
2019-10-02 01:00:00 14.3 7 Noroeste 21 Oeste 0 -- -- 88
2019-10-02 00:00:00 14.5 5 Oeste 12 Noroeste 0 -- -- 92
2019-10-01 23:00:00 14.4 3 Oeste 14 Noroeste 0.2 -- -- 94
2019-10-01 22:00:00 15 8 Norte 19 Noroeste 0 -- -- 88
2019-10-01 21:00:00 15.7 7 Noroeste 20 Noroeste 0 -- -- 81
2019-10-01 20:00:00 15.9 10 Noroeste 23 Noroeste 0 -- -- 78
2019-10-01 19:00:00 16.9 18 Noroeste 27 Noroeste 0 -- -- 80
2019-10-01 18:00:00 18.3 9 Nordeste 24 Nordeste 0 -- -- 77
2019-10-01 17:00:00 20.8 11 Nordeste 19 Nordeste 0 -- -- 67
2019-10-01 16:00:00 20.6 7 Nordeste 19 Este 0 -- -- 68
2019-10-01 15:00:00 21.9 8 Noroeste 21 Noroeste 0 -- -- 62
2019-10-01 14:00:00 20.9 8 Noroeste 16 Noroeste 0 -- -- 63
2019-10-01 13:00:00 20.7 10 Noroeste 15 Oeste 0 -- -- 67
2019-10-01 12:00:00 19.7 10 Noroeste 17 Noroeste 0 -- -- 72
2019-10-01 11:00:00 19.3 3 Oeste 13 Oeste 0 -- -- 73
2019-10-01 10:00:00 18.1 4 Sur 9 Sudeste 0 -- -- 78
2019-10-01 09:00:00 14.2 3 Sur 13 Sudoeste 0 -- -- 90
2019-10-01 08:00:00 13.8 6 Sudeste 10 Sudeste 0 -- -- 90
2019-10-01 07:00:00 13.1 6 Sudeste 10 Sudeste 0 -- -- 94
2019-10-01 06:00:00 13.5 3 Sur 11 Sudeste 0 -- -- 94
2019-10-01 05:00:00 13.4 8 Sudeste 13 Sudeste 0 -- -- 94
2019-10-01 04:00:00 13.7 4 Sudeste 10 Sudeste 0 -- -- 92
2019-10-01 03:00:00 14 4 Sudeste 9 Sudeste 0 -- -- 89
2019-10-01 02:00:00 15.2 4 Sur 12 Sudoeste 0 -- -- 86
2019-10-01 01:00:00 16.1 7 Sudeste 11 Sudeste 0 -- -- 85
2019-10-01 00:00:00 16 5 Sudeste 12 Sudeste 0 -- -- 86
2019-09-30 23:00:00 16.2 8 Sudeste 10 Sudeste 0 -- -- 86
2019-09-30 22:00:00 17.4 8 Sudeste 13 Sudeste 0 -- -- 79
2019-09-30 21:00:00 18.2 10 Sudeste 15 Sudeste 0 -- -- 76
2019-09-30 20:00:00 19.7 11 Sudeste 14 Sudeste 0 -- -- 72
2019-09-30 19:00:00 24.8 2 Sudeste 7 Noroeste 0 -- -- 58
2019-09-30 18:00:00 25.9 5 Noroeste 11 Noroeste 0 -- -- 47
2019-09-30 17:00:00 26.1 9 Noroeste 21 Oeste 0 -- -- 46
2019-09-30 16:00:00 26.1 13 Oeste 22 Oeste 0 -- -- 44
2019-09-30 15:00:00 25.4 5 Oeste 16 Oeste 0 -- -- 49
2019-09-30 14:00:00 23.5 5 Noroeste 10 Oeste 0 -- -- 57
2019-09-30 13:00:00 22 5 Noroeste 12 Noroeste 0 -- -- 61
2019-09-30 12:00:00 20.6 2 Sudoeste 6 Sudoeste 0 -- -- 68
2019-09-30 11:00:00 17.8 3 Oeste 5 Oeste 0 -- -- 79
2019-09-30 10:00:00 15.1 0 Calma 5 Sudeste 0 -- -- 88
2019-09-30 09:00:00 11.5 5 Sudeste 9 Sudeste 0 -- -- 98
2019-09-30 08:00:00 10.4 5 Sudeste 7 Sudeste 0 -- -- 97
2019-09-30 07:00:00 10.8 3 Sudeste 9 Sudeste 0 -- -- 97
2019-09-30 06:00:00 10.9 4 Sudeste 6 Sudeste 0 -- -- 95
2019-09-30 05:00:00 11.3 5 Sudeste 10 Sudeste 0 -- -- 95
2019-09-30 04:00:00 11.5 8 Sudeste 11 Sudeste 0 -- -- 94
2019-09-30 03:00:00 11.8 7 Sudeste 11 Sudeste 0 -- -- 93
2019-09-30 02:00:00 12.5 8 Sudeste 10 Sudeste 0 -- -- 91
2019-09-30 01:00:00 12.5 7 Sudeste 10 Sudeste 0 -- -- 88
2019-09-30 00:00:00 12.7 8 Sudeste 14 Sudeste 0 -- -- 82
2019-09-29 23:00:00 14.2 7 Sudeste 11 Sudeste 0 -- -- 73
2019-09-29 22:00:00 14.9 9 Sudeste 14 Sudeste 0 -- -- 67
2019-09-29 21:00:00 16.8 5 Sudeste 14 Sur 0 -- -- 61
2019-09-29 20:00:00 20.4 5 Nordeste 23 Nordeste 0 -- -- 49
2019-09-29 19:00:00 24.1 13 Nordeste 27 Norte 0 -- -- 43
2019-09-29 18:00:00 28.2 9 Oeste 24 Oeste 0 -- -- 27
2019-09-29 17:00:00 28.2 14 Oeste 33 Oeste 0 -- -- 28
2019-09-29 16:00:00 27.7 11 Oeste 21 Oeste 0 -- -- 31
2019-09-29 15:00:00 26.9 10 Oeste 26 Oeste 0 -- -- 34
2019-09-29 14:00:00 26 19 Oeste 29 Oeste 0 -- -- 35
2019-09-29 13:00:00 25.4 6 Sudoeste 23 Sur 0 -- -- 42
2019-09-29 12:00:00 23.8 10 Sudoeste 20 Sudoeste 0 -- -- 47
2019-09-29 11:00:00 21.9 3 Oeste 9 Sur 0 -- -- 61
2019-09-29 10:00:00 19.2 3 Sudoeste 30 Sudeste 0 -- -- 69
2019-09-29 09:00:00 15.8 5 Este 22 Este 0 -- -- 82
2019-09-29 08:00:00 15.6 7 Noroeste 31 Este 0 -- -- 75
2019-09-29 07:00:00 17 8 Este 33 Este 0 -- -- 72
2019-09-29 06:00:00 17.2 5 Noroeste 24 Este 0 -- -- 70
2019-09-29 05:00:00 16.1 4 Este 24 Este 0 -- -- 67
2019-09-29 04:00:00 16.3 4 Sudoeste 14 Oeste 0 -- -- 67
2019-09-29 03:00:00 18 7 Sudeste 32 Sudeste 0 -- -- 63
2019-09-29 02:00:00 18.6 21 Sudeste 31 Sudeste 0 -- -- 61
2019-09-29 01:00:00 19.8 15 Sudeste 31 Sudeste 0 -- -- 58
2019-09-29 00:00:00 19.3 11 Sudeste 28 Sudeste 0 -- -- 59
2019-09-28 23:00:00 18.8 14 Sudeste 25 Sudeste 0 -- -- 62
2019-09-28 22:00:00 18.6 6 Sudeste 23 Sudeste 0 -- -- 64
2019-09-28 21:00:00 18.8 9 Sur 26 Sudeste 0 -- -- 65
2019-09-28 20:00:00 20 12 Sudeste 18 Sudeste 0 -- -- 61
2019-09-28 19:00:00 23 10 Sudeste 17 Sudeste 0 -- -- 53
2019-09-28 18:00:00 24.7 9 Sur 18 Sudoeste 0 -- -- 46
2019-09-28 17:00:00 25.5 6 Sudoeste 16 Oeste 0 -- -- 43
2019-09-28 16:00:00 25.1 6 Sudoeste 14 Sudoeste 0 -- -- 47
2019-09-28 15:00:00 24.1 9 Sur 19 Sudoeste 0 -- -- 49
2019-09-28 14:00:00 22 4 Norte 13 Noroeste 0 -- -- 62
2019-09-28 13:00:00 20.8 3 Este 8 Nordeste 0 -- -- 65
2019-09-28 12:00:00 18.6 3 Noroeste 10 Norte 0 -- -- 75
2019-09-28 11:00:00 17.2 3 Norte 7 Nordeste 0 -- -- 81
2019-09-28 10:00:00 14.7 2 Oeste 5 Sudoeste 0 -- -- 89
2019-09-28 09:00:00 13.9 3 Oeste 5 Oeste 0 -- -- 93
2019-09-28 08:00:00 13.6 2 Sudeste 4 Sudeste 0 -- -- 92
2019-09-28 07:00:00 13.7 2 Sudeste 3 Sudeste 0 -- -- 92
2019-09-28 06:00:00 13.8 2 Sudeste 4 Sudeste 0 -- -- 92
2019-09-28 05:00:00 14 0 Calma 5 Noroeste 0 -- -- 89
2019-09-28 04:00:00 14.1 0 Calma 4 Oeste 0 -- -- 88
2019-09-28 03:00:00 14.1 4 Oeste 7 Oeste 0 -- -- 88
2019-09-28 02:00:00 14.3 0 Calma 8 Sudoeste 0 -- -- 88
2019-09-28 01:00:00 14.3 3 Oeste 10 Oeste 0 -- -- 88
2019-09-28 00:00:00 14.6 3 Sudoeste 21 Noroeste 0 -- -- 86
2019-09-27 23:00:00 15.5 9 Noroeste 18 Noroeste 0 -- -- 87
2019-09-27 22:00:00 16 5 Norte 13 Noroeste 0 -- -- 86
2019-09-27 21:00:00 16.5 3 Norte 17 Nordeste 0 -- -- 80
2019-09-27 20:00:00 17.8 5 Este 19 Este 0 -- -- 78
2019-09-27 19:00:00 19.3 12 Nordeste 25 Nordeste 0 -- -- 73
2019-09-27 18:00:00 22.6 11 Nordeste 20 Norte 0 -- -- 58
2019-09-27 17:00:00 24 7 Noroeste 18 Noroeste 0 -- -- 41
2019-09-27 16:00:00 23.8 5 Sudoeste 20 Noroeste 0 -- -- 43
2019-09-27 15:00:00 22.8 5 Norte 12 Este 0 -- -- 50
2019-09-27 14:00:00 21.9 4 Norte 10 Nordeste 0 -- -- 55
2019-09-27 13:00:00 20.6 6 Norte 10 Norte 0 -- -- 60
2019-09-27 12:00:00 18.7 3 Oeste 8 Noroeste 0 -- -- 76
2019-09-27 11:00:00 16.5 2 Oeste 5 Oeste 0 -- -- 84
2019-09-27 10:00:00 14.1 4 Nordeste 5 Nordeste 0 -- -- 91
2019-09-27 09:00:00 11.6 0 Calma 7 Sudeste 0 -- -- 99
2019-09-27 08:00:00 9.8 5 Sudeste 12 Sudeste 0 -- -- 96
2019-09-27 07:00:00 11.3 6 Sudeste 9 Sudeste 0 -- -- 95
2019-09-27 06:00:00 12.8 3 Sudeste 8 Sudeste 0 -- -- 99
2019-09-27 05:00:00 12.9 3 Este 6 Sudeste 0 -- -- 99
2019-09-27 04:00:00 13.2 3 Este 5 Sudeste 0 -- -- 99
2019-09-27 03:00:00 13 0 Calma 4 Sur 0 -- -- 99
2019-09-27 02:00:00 11.6 4 Sudeste 9 Sudeste 0 -- -- 96
2019-09-27 01:00:00 12.1 6 Sudeste 9 Sudeste 0 -- -- 95
2019-09-27 00:00:00 12.5 5 Sudeste 10 Sudeste 0 -- -- 93
2019-09-26 23:00:00 13.7 4 Sudeste 8 Sudeste 0 -- -- 90
2019-09-26 22:00:00 14.9 7 Sudeste 9 Sudeste 0 -- -- 89
2019-09-26 21:00:00 16.9 5 Sudeste 15 Sudoeste 0 -- -- 80
2019-09-26 20:00:00 19.9 7 Sudeste 10 Sudeste 0 -- -- 67
2019-09-26 19:00:00 24.9 4 Sur 15 Oeste 0 -- -- 53
2019-09-26 18:00:00 26 8 Oeste 20 Oeste 0 -- -- 40
2019-09-26 17:00:00 25.4 6 Noroeste 20 Oeste 0 -- -- 42
2019-09-26 16:00:00 24.4 6 Oeste 15 Oeste 0 -- -- 52
2019-09-26 15:00:00 23.5 6 Noroeste 15 Noroeste 0 -- -- 55
2019-09-26 14:00:00 22.2 7 Noroeste 15 Oeste 0 -- -- 59
2019-09-26 13:00:00 20.7 4 Noroeste 10 Noroeste 0 -- -- 61
2019-09-26 12:00:00 19 5 Norte 9 Noroeste 0 -- -- 70
2019-09-26 11:00:00 16.7 4 Norte 8 Norte 0 -- -- 83
2019-09-26 10:00:00 13.8 3 Oeste 6 Oeste 0 -- -- 91
2019-09-26 09:00:00 10.8 3 Sudeste 8 Sudeste 0 -- -- 99
2019-09-26 08:00:00 9.6 4 Sudeste 7 Sudeste 0 -- -- 97
2019-09-26 07:00:00 10 3 Sur 9 Sudeste 0 -- -- 99
2019-09-26 06:00:00 9.7 5 Sudeste 9 Sudeste 0 -- -- 97
2019-09-26 05:00:00 10 8 Sudeste 10 Sudeste 0 -- -- 96
2019-09-26 04:00:00 10.3 7 Sudeste 10 Sudeste 0 -- -- 96
2019-09-26 03:00:00 10.5 7 Sudeste 10 Sudeste 0 -- -- 95
2019-09-26 02:00:00 11.1 8 Sudeste 10 Sudeste 0 -- -- 95
2019-09-26 01:00:00 11.6 8 Sudeste 10 Sudeste 0 -- -- 94
2019-09-26 00:00:00 12.6 6 Sudeste 9 Sudeste 0 -- -- 90
2019-09-25 23:00:00 13.5 7 Sudeste 9 Sudeste 0 -- -- 87
2019-09-25 22:00:00 14.9 8 Sudeste 10 Sudeste 0 -- -- 83
2019-09-25 21:00:00 15.4 5 Sudeste 8 Sudeste 0 -- -- 83
2019-09-25 20:00:00 16 6 Sudeste 8 Sudeste 0 -- -- 80
2019-09-25 19:00:00 18.3 3 Nordeste 10 Nordeste 0 -- -- 64
2019-09-25 18:00:00 18.8 5 Nordeste 20 Noroeste 0 -- -- 63
2019-09-25 17:00:00 19.3 5 Noroeste 14 Noroeste 0 -- -- 56
2019-09-25 16:00:00 19.5 8 Oeste 17 Noroeste 0 -- -- 55
2019-09-25 15:00:00 19.9 5 Oeste 15 Sudoeste 0 -- -- 56
2019-09-25 14:00:00 18.1 6 Oeste 18 Norte 0 -- -- 62
2019-09-25 13:00:00 17.8 8 Noroeste 19 Oeste 0 -- -- 63
2019-09-25 12:00:00 15.8 8 Noroeste 18 Oeste 0 -- -- 68
2019-09-25 11:00:00 15.7 5 Oeste 11 Noroeste 0 -- -- 73
2019-09-25 10:00:00 13.8 3 Sudeste 9 Sudeste 0 -- -- 85
2019-09-25 09:00:00 11.3 7 Sudeste 11 Sudeste 0 -- -- 93
2019-09-25 08:00:00 11.1 7 Sudeste 9 Sudeste 0 -- -- 90
2019-09-25 07:00:00 13.2 3 Sudoeste 9 Oeste 0 -- -- 84
2019-09-25 06:00:00 13.2 4 Sur 8 Sudoeste 0 -- -- 90
2019-09-25 05:00:00 13.4 3 Sur 7 Sur 0 -- -- 91
2019-09-25 04:00:00 13.6 2 Este 6 Oeste 0 -- -- 94
2019-09-25 03:00:00 13.8 8 Oeste 14 Oeste 0 -- -- 93
2019-09-25 02:00:00 14.1 6 Oeste 9 Oeste 0 -- -- 89
2019-09-25 01:00:00 14.3 3 Oeste 8 Sudoeste 0 -- -- 87
2019-09-25 00:00:00 14.4 9 Noroeste 19 Noroeste 0 -- -- 85
2019-09-24 23:00:00 15 6 Nordeste 15 Este 0 -- -- 84
2019-09-24 22:00:00 15.1 9 Nordeste 20 Este 0 -- -- 83
2019-09-24 21:00:00 15.8 12 Nordeste 22 Nordeste 0 -- -- 83
2019-09-24 20:00:00 17.5 10 Nordeste 23 Nordeste 0 -- -- 80
2019-09-24 19:00:00 20.7 4 Nordeste 13 Norte 0 -- -- 70
2019-09-24 18:00:00 21.9 9 Noroeste 23 Oeste 0 -- -- 63
2019-09-24 17:00:00 21.6 10 Oeste 30 Sudoeste 0 -- -- 64
2019-09-24 16:00:00 22.9 13 Oeste 30 Oeste 0 -- -- 60
2019-09-24 15:00:00 22.2 10 Oeste 28 Oeste 0 -- -- 60
2019-09-24 14:00:00 21.7 16 Oeste 29 Oeste 0 -- -- 61
2019-09-24 13:00:00 21.2 3 Noroeste 14 Nordeste 0 -- -- 60
2019-09-24 12:00:00 19.3 4 Norte 9 Sudoeste 0 -- -- 65
2019-09-24 11:00:00 18.4 6 Oeste 24 Oeste 0 -- -- 64
2019-09-24 10:00:00 17.5 4 Norte 15 Sudoeste 0 -- -- 63
2019-09-24 09:00:00 17.5 4 Noroeste 22 Sudoeste 0 -- -- 67
2019-09-24 08:00:00 17.5 6 Oeste 33 Sudoeste 0 -- -- 65
2019-09-24 07:00:00 17.9 9 Sudoeste 35 Sudoeste 0 -- -- 63
2019-09-24 06:00:00 18.1 15 Sur 30 Sur 0 -- -- 60
2019-09-24 05:00:00 17.4 10 Sur 27 Sudoeste 0 -- -- 61
2019-09-24 04:00:00 15.4 10 Sudeste 18 Sur 0 -- -- 68
2019-09-24 03:00:00 17.3 9 Sur 21 Sudeste 0 -- -- 60
2019-09-24 02:00:00 17.1 9 Sudeste 19 Sudoeste 0 -- -- 65
2019-09-24 01:00:00 17.5 3 Este 14 Sur 0 -- -- 65
2019-09-24 00:00:00 17 6 Sur 13 Sur 0 -- -- 72
2019-09-23 23:00:00 17.2 7 Sur 18 Sudoeste 0 -- -- 68
2019-09-23 22:00:00 16.3 6 Sur 11 Sur 0 -- -- 75
2019-09-23 21:00:00 16.8 6 Sudeste 12 Sur 0 -- -- 75
2019-09-23 20:00:00 17.7 5 Sudeste 6 Sudeste 0 -- -- 75
2019-09-23 19:00:00 19.9 3 Sudeste 17 Sudoeste 0 -- -- 65
2019-09-23 18:00:00 20.4 5 Sudoeste 22 Sudoeste 0 -- -- 53
2019-09-23 17:00:00 22 7 Sudoeste 33 Oeste 0 -- -- 52
2019-09-23 16:00:00 20.8 4 Oeste 17 Sur 0 -- -- 53
2019-09-23 15:00:00 19.9 8 Sudoeste 21 Sur 0 -- -- 55
2019-09-23 14:00:00 19.1 9 Sur 34 Sudoeste 0 -- -- 60
2019-09-23 13:00:00 17.4 4 Sur 9 Sudeste 0 -- -- 70
2019-09-23 12:00:00 16.1 3 Norte 7 Noroeste 0 -- -- 73
2019-09-23 11:00:00 16.3 5 Norte 8 Noroeste 0 -- -- 71
2019-09-23 10:00:00 14 0 Calma 4 Noroeste 0 -- -- 90
2019-09-23 09:00:00 11.6 0 Calma 9 Sudeste 0 -- -- 96
2019-09-23 08:00:00 9.9 0 Calma 8 Sudeste 0 -- -- 98
2019-09-23 07:00:00 9.3 4 Sudeste 9 Sudeste 0 -- -- 97
2019-09-23 06:00:00 9.3 6 Sudeste 9 Sudeste 0 -- -- 98
2019-09-23 05:00:00 9 5 Sudeste 9 Sudeste 0 -- -- 97
2019-09-23 04:00:00 9.1 5 Sudeste 8 Sudeste 0 -- -- 96
2019-09-23 03:00:00 9.5 5 Sudeste 8 Nordeste 0 -- -- 94
2019-09-23 02:00:00 10.5 4 Nordeste 12 Sudeste 0 -- -- 93
2019-09-23 01:00:00 10.7 6 Sudeste 12 Sudeste 0 -- -- 94
2019-09-23 00:00:00 10.9 7 Sudeste 10 Sudeste 0 -- -- 92
2019-09-22 23:00:00 12.7 8 Sudeste 13 Este 0 -- -- 88
2019-09-22 22:00:00 12.4 4 Sudeste 17 Este 0 -- -- 88
2019-09-22 21:00:00 14.2 9 Este 21 Norte 0 -- -- 86
2019-09-22 20:00:00 16.7 6 Norte 18 Nordeste 0 -- -- 75
2019-09-22 19:00:00 19.4 6 Norte 17 Noroeste 0 -- -- 60
2019-09-22 18:00:00 20.7 7 Oeste 22 Oeste 0 -- -- 47
2019-09-22 17:00:00 20.4 9 Oeste 28 Oeste 0 -- -- 47
2019-09-22 16:00:00 19.4 14 Oeste 30 Oeste 0 -- -- 54
2019-09-22 15:00:00 18.5 9 Oeste 23 Sudoeste 0 -- -- 62
2019-09-22 14:00:00 17.3 13 Oeste 26 Oeste 0 -- -- 68
2019-09-22 13:00:00 16.8 11 Oeste 29 Oeste 0 -- -- 74
2019-09-22 12:00:00 15.5 9 Oeste 24 Oeste 0 -- -- 77
2019-09-22 11:00:00 14.8 12 Oeste 24 Oeste 0 -- -- 84
2019-09-22 10:00:00 15 8 Noroeste 18 Noroeste 0 -- -- 89
2019-09-22 09:00:00 14.2 2 Este 12 Norte 0 -- -- 97
2019-09-22 08:00:00 14.5 8 Norte 18 Oeste 1.4 -- -- 96
2019-09-22 07:00:00 15.8 8 Sudoeste 27 Oeste 0.8 -- -- 91
2019-09-22 06:00:00 17.1 8 Este 32 Sudeste 0.6 -- -- 90
2019-09-22 05:00:00 18.2 21 Sudeste 38 Sudeste 0 -- -- 83
2019-09-22 04:00:00 18.6 18 Sudeste 36 Sudeste 0 -- -- 78
2019-09-22 03:00:00 18.7 21 Sudeste 36 Este 0 -- -- 77
2019-09-22 02:00:00 19.1 19 Sudeste 43 Sudeste 0 -- -- 74
2019-09-22 01:00:00 19.5 23 Sudeste 43 Sudeste 0 -- -- 71
2019-09-22 00:00:00 18.8 22 Sudeste 39 Sudeste 0 -- -- 72
2019-09-21 23:00:00 19.6 18 Sudeste 31 Sur 0 -- -- 67
2019-09-21 22:00:00 19.6 17 Sur 31 Sudeste 0 -- -- 67
2019-09-21 21:00:00 20.4 6 Sur 22 Sur 0 -- -- 63
2019-09-21 20:00:00 20.8 13 Sur 27 Sur 0 -- -- 61
2019-09-21 19:00:00 21.4 9 Sur 33 Sudeste 0 -- -- 63
2019-09-21 18:00:00 21.5 8 Sudeste 29 Sudeste 0 -- -- 69
2019-09-21 17:00:00 21.7 16 Sudeste 36 Sudeste 0 -- -- 71
2019-09-21 16:00:00 21.3 17 Sudeste 37 Sudeste 0 -- -- 71
2019-09-21 15:00:00 20.9 20 Sudeste 39 Sudeste 0 -- -- 74
2019-09-21 14:00:00 21 17 Sudeste 42 Sur 0 -- -- 73
2019-09-21 13:00:00 20.1 18 Sudeste 48 Sudeste 0 -- -- 77
2019-09-21 12:00:00 19.2 28 Sudeste 46 Sudeste 0 -- -- 78
2019-09-21 11:00:00 17.5 23 Sudeste 44 Sudeste 0 -- -- 85
2019-09-21 10:00:00 16.9 28 Sudeste 48 Sudeste 0 -- -- 87
2019-09-21 09:00:00 16.6 27 Sudeste 52 Este 0 -- -- 88
2019-09-21 08:00:00 16.5 31 Sudeste 61 Sudeste 0 -- -- 90
2019-09-21 07:00:00 16.4 36 Sudeste 59 Sudeste 0 -- -- 89
2019-09-21 06:00:00 16.1 35 Sudeste 60 Sudeste 0 -- -- 90
2019-09-21 05:00:00 15.9 31 Sudeste 59 Este 0 -- -- 90
2019-09-21 04:00:00 15.9 31 Sudeste 55 Sudeste 0.4 -- -- 94
2019-09-21 03:00:00 15.6 21 Sudeste 67 Sudeste 4.2 -- -- 97
2019-09-21 02:00:00 17.3 36 Sudeste 67 Sudeste 0 -- -- 82
2019-09-21 01:00:00 16.7 32 Sudeste 53 Sudeste 0.6 -- -- 89
2019-09-21 00:00:00 16.8 18 Sudeste 43 Sur 2 -- -- 88
2019-09-20 23:00:00 18.2 26 Sur 47 Sudeste 1.4 -- -- 77
2019-09-20 22:00:00 20.5 24 Sudeste 60 Sudeste 0 -- -- 67
2019-09-20 21:00:00 21.4 21 Sudeste 45 Sudeste 0 -- -- 67
2019-09-20 20:00:00 22 21 Sudeste 39 Este 0 -- -- 67
2019-09-20 19:00:00 23 21 Sudeste 41 Sur 0 -- -- 64
2019-09-20 18:00:00 23.7 23 Sudeste 54 Sudeste 0 -- -- 59
2019-09-20 17:00:00 24 26 Sudeste 44 Sur 0 -- -- 61
2019-09-20 16:00:00 22.9 24 Sudeste 49 Sudeste 0 -- -- 64
2019-09-20 15:00:00 24 27 Sudeste 53 Sudeste 0 -- -- 60
2019-09-20 14:00:00 23.3 27 Sudeste 53 Sudeste 0 -- -- 63
2019-09-20 13:00:00 22.2 31 Sudeste 59 Sudeste 0 -- -- 64
2019-09-20 12:00:00 21.2 36 Sudeste 61 Sudeste 0 -- -- 67
2019-09-20 11:00:00 19.9 33 Sudeste 65 Sudeste 0 -- -- 72
2019-09-20 10:00:00 18.8 35 Sudeste 57 Sudeste 0 -- -- 76
2019-09-20 09:00:00 17.8 33 Sudeste 62 Este 0 -- -- 77
2019-09-20 08:00:00 17.3 35 Sudeste 61 Sudeste 0 -- -- 80
2019-09-20 07:00:00 17.7 37 Sudeste 62 Este 0 -- -- 78
2019-09-20 06:00:00 17.9 35 Sudeste 62 Sudeste 0 -- -- 79
2019-09-20 05:00:00 18.2 34 Sudeste 60 Sudeste 0 -- -- 80
2019-09-20 04:00:00 18.4 36 Sudeste 56 Sudeste 0 -- -- 80
2019-09-20 03:00:00 15.4 9 Norte 19 Sudeste 0 -- -- 100
2019-09-20 02:00:00 14 4 Sudeste 8 Sudeste 0 -- -- 97
2019-09-20 01:00:00 14.6 3 Este 6 Este 0 -- -- 96
2019-09-20 00:00:00 15.9 2 Este 7 Nordeste 0 -- -- 93
2019-09-19 23:00:00 16.7 3 Nordeste 5 Nordeste 0 -- -- 94
2019-09-19 22:00:00 18.6 3 Sudoeste 10 Este 0 -- -- 87
2019-09-19 21:00:00 19 6 Sudeste 11 Sudeste 0 -- -- 86
2019-09-19 20:00:00 21.8 3 Sudeste 14 Este 0 -- -- 73
2019-09-19 19:00:00 23.1 5 Nordeste 13 Nordeste 0 -- -- 70
2019-09-19 18:00:00 23.3 8 Nordeste 14 Este 0 -- -- 67
2019-09-19 17:00:00 24.5 4 Oeste 14 Sur 0 -- -- 64
2019-09-19 16:00:00 23.6 3 Sur 10 Oeste 0 -- -- 68
2019-09-19 15:00:00 22.7 5 Sudoeste 9 Sudoeste 0 -- -- 73
2019-09-19 14:00:00 21.1 4 Sur 12 Sudoeste 0 -- -- 76
2019-09-19 13:00:00 19.1 4 Noroeste 11 Noroeste 0 -- -- 79
2019-09-19 12:00:00 17.8 5 Oeste 10 Noroeste 0 -- -- 83
2019-09-19 11:00:00 15.5 4 Oeste 9 Oeste 0 -- -- 91
2019-09-19 10:00:00 14.6 3 Oeste 8 Oeste 0 -- -- 95
2019-09-19 09:00:00 14.2 5 Noroeste 6 Noroeste 0 -- -- 98
2019-09-19 08:00:00 14.2 0 Calma 5 Oeste 0 -- -- 99
2019-09-19 07:00:00 14.3 3 Oeste 6 Oeste 0 -- -- 98
2019-09-19 06:00:00 14.4 0 Calma 4 Noroeste 0 -- -- 98
2019-09-19 05:00:00 14.6 2 Oeste 4 Noroeste 0 -- -- 98
2019-09-19 04:00:00 14.5 0 Calma 5 Sur 0 -- -- 98
2019-09-19 03:00:00 14.8 3 Sudeste 5 Sudeste 0 -- -- 95
2019-09-19 02:00:00 15.7 2 Sudoeste 5 Sur 0 -- -- 96
2019-09-19 01:00:00 16 2 Sudoeste 4 Sudoeste 0 -- -- 96
2019-09-19 00:00:00 16.3 2 Oeste 8 Sudoeste 0 -- -- 95